createdAt,value
2023-10-10T00:02:05.351Z,13.93
2023-10-10T00:04:34.587Z,15.48
2023-10-10T00:07:05.420Z,14.32
2023-10-10T00:09:32.831Z,14.57
2023-10-10T00:12:00.016Z,14.20
2023-10-10T00:14:30.687Z,13.73
2023-10-10T00:17:00.953Z,15.70
2023-10-10T00:19:31.368Z,15.50
2023-10-10T00:21:58.965Z,14.93
2023-10-10T00:24:32.702Z,15.90
2023-10-10T00:27:16.859Z,15.13
2023-10-10T00:29:44.287Z,14.63
2023-10-10T00:32:18.881Z,15.07
2023-10-10T00:34:49.858Z,13.88
2023-10-10T00:37:22.557Z,13.55
2023-10-10T00:39:55.723Z,14.07
2023-10-10T00:42:41.695Z,15.13
2023-10-10T00:45:11.461Z,13.95
2023-10-10T00:47:51.835Z,16.92
2023-10-10T00:50:20.262Z,16.17
2023-10-10T00:52:50.292Z,14.45
2023-10-10T00:55:26.169Z,15.27
2023-10-10T00:58:00.035Z,15.05
2023-10-10T01:00:31.427Z,16.13
2023-10-10T01:03:22.488Z,15.57
2023-10-10T01:05:59.566Z,15.60
2023-10-10T01:08:32.572Z,15.23
2023-10-10T01:11:06.684Z,16.48
2023-10-10T01:13:35.152Z,15.07
2023-10-10T01:16:06.287Z,16.00
2023-10-10T01:18:41.063Z,15.35
2023-10-10T01:21:10.305Z,16.08
2023-10-10T01:23:38.889Z,16.00
2023-10-10T01:26:11.024Z,15.18
2023-10-10T01:28:38.354Z,15.70
2023-10-10T01:31:06.639Z,14.85
2023-10-10T01:33:37.922Z,15.68
2023-10-10T01:36:13.875Z,15.90
2023-10-10T01:38:57.191Z,16.25
2023-10-10T01:41:41.163Z,18.10
2023-10-10T01:44:12.635Z,18.67
2023-10-10T01:46:44.351Z,18.40
2023-10-10T01:49:20.914Z,19.23
2023-10-10T01:51:56.697Z,18.90
2023-10-10T01:54:42.861Z,18.45
2023-10-10T01:57:22.191Z,17.92
2023-10-10T01:59:52.878Z,17.40
2023-10-10T02:02:24.835Z,17.60
2023-10-10T02:05:00.961Z,16.85
2023-10-10T02:07:33.242Z,17.90
2023-10-10T02:10:21.808Z,17.13
2023-10-10T02:12:53.018Z,17.50
2023-10-10T02:15:26.705Z,19.25
2023-10-10T02:17:56.235Z,17.83
2023-10-10T02:20:26.713Z,17.25
2023-10-10T02:23:13.080Z,18.00
2023-10-10T02:25:41.189Z,18.83
2023-10-10T02:28:21.247Z,19.15
2023-10-10T02:30:53.592Z,17.55
2023-10-10T02:33:21.339Z,19.23
2023-10-10T02:35:57.736Z,18.17
2023-10-10T02:38:41.230Z,20.20
2023-10-10T02:41:31.234Z,19.50
2023-10-10T02:44:01.913Z,20.08
2023-10-10T02:46:36.740Z,19.63
2023-10-10T02:49:14.041Z,19.98
2023-10-10T02:51:44.556Z,20.17
2023-10-10T02:54:32.180Z,21.88
2023-10-10T02:57:26.184Z,21.15
2023-10-10T03:00:01.448Z,22.73
2023-10-10T03:02:42.426Z,19.60
2023-10-10T03:05:17.053Z,22.98
2023-10-10T03:07:53.131Z,22.45
2023-10-10T03:10:24.125Z,23.05
2023-10-10T03:13:05.288Z,24.15
2023-10-10T03:15:34.633Z,20.15
2023-10-10T03:18:11.307Z,20.60
2023-10-10T03:20:38.423Z,21.58
2023-10-10T03:23:06.718Z,21.42
2023-10-10T03:25:53.972Z,22.63
2023-10-10T03:28:28.910Z,22.08
2023-10-10T03:31:08.143Z,22.38
2023-10-10T03:33:38.726Z,22.55
2023-10-10T03:36:16.095Z,24.08
2023-10-10T03:38:49.171Z,23.10
2023-10-10T03:41:24.118Z,20.65
2023-10-10T03:44:14.652Z,21.23
2023-10-10T03:47:00.775Z,24.65
2023-10-10T03:49:50.712Z,24.25
2023-10-10T03:52:36.559Z,25.48
2023-10-10T03:55:22.362Z,26.92
2023-10-10T03:58:07.906Z,28.10
2023-10-10T04:01:13.443Z,26.83
2023-10-10T04:03:59.383Z,25.98
2023-10-10T04:06:45.063Z,25.30
2023-10-10T04:09:30.853Z,26.83
2023-10-10T04:12:16.829Z,30.08
2023-10-10T04:15:02.601Z,28.40
2023-10-10T04:17:48.844Z,26.50
2023-10-10T04:20:35.003Z,27.05
2023-10-10T04:23:20.987Z,24.77
2023-10-10T04:26:06.861Z,25.92
2023-10-10T04:28:52.563Z,23.85
2023-10-10T04:31:38.729Z,24.50
2023-10-10T04:34:24.568Z,23.77
2023-10-10T04:37:10.251Z,25.95
2023-10-10T04:39:56.263Z,25.50
2023-10-10T04:42:42.006Z,26.63
2023-10-10T04:45:27.932Z,24.73
2023-10-10T04:48:13.692Z,24.42
2023-10-10T04:50:59.674Z,27.35
2023-10-10T04:53:45.493Z,25.88
2023-10-10T04:56:42.180Z,25.02
2023-10-10T04:59:27.655Z,25.63
2023-10-10T05:02:13.837Z,24.23
2023-10-10T05:04:59.757Z,23.35
2023-10-10T05:07:45.844Z,25.45
2023-10-10T05:10:31.411Z,22.90
2023-10-10T05:13:17.348Z,23.13
2023-10-10T05:16:03.272Z,24.40
2023-10-10T05:18:50.791Z,24.83
2023-10-10T05:21:36.714Z,23.15
2023-10-10T05:24:10.308Z,25.25
2023-10-10T05:26:47.521Z,24.02
2023-10-10T05:29:20.615Z,23.00
2023-10-10T05:31:48.785Z,23.60
2023-10-10T05:34:16.474Z,20.75
2023-10-10T05:36:46.078Z,21.02
2023-10-10T05:39:19.069Z,22.17
2023-10-10T05:41:48.501Z,22.70
2023-10-10T05:44:17.982Z,22.95
2023-10-10T05:46:45.543Z,21.05
2023-10-10T05:49:12.766Z,22.70
2023-10-10T05:51:40.016Z,20.50
2023-10-10T05:54:12.550Z,22.88
2023-10-10T05:56:40.036Z,21.05
2023-10-10T05:59:09.488Z,20.73
2023-10-10T06:01:38.737Z,19.58
2023-10-10T06:04:08.519Z,20.75
2023-10-10T06:06:37.643Z,21.08
2023-10-10T06:09:06.523Z,19.80
2023-10-10T06:11:35.896Z,20.02
2023-10-10T06:14:05.445Z,19.35
2023-10-10T06:16:33.693Z,18.88
2023-10-10T06:19:02.533Z,18.40
2023-10-10T06:21:30.934Z,18.38
2023-10-10T06:23:58.415Z,19.42
2023-10-10T06:26:26.060Z,19.65
2023-10-10T06:28:55.140Z,17.10
2023-10-10T06:31:23.257Z,18.38
2023-10-10T06:33:51.733Z,18.63
2023-10-10T06:36:23.323Z,17.70
2023-10-10T06:39:19.208Z,17.90
2023-10-10T06:41:51.297Z,17.50
2023-10-10T06:44:33.474Z,15.57
2023-10-10T06:47:05.632Z,18.17
2023-10-10T06:49:44.801Z,16.42
2023-10-10T06:52:19.727Z,16.02
2023-10-10T06:54:55.206Z,16.30
2023-10-10T06:57:50.591Z,17.15
2023-10-10T07:00:18.356Z,15.73
2023-10-10T07:02:50.033Z,16.25
2023-10-10T07:05:20.431Z,15.95
2023-10-10T07:07:59.572Z,15.20
2023-10-10T07:10:35.062Z,17.73
2023-10-10T07:13:11.808Z,15.30
2023-10-10T07:15:41.387Z,15.50
2023-10-10T07:18:11.331Z,15.20
2023-10-10T07:20:57.176Z,13.73
2023-10-10T07:23:25.424Z,14.68
2023-10-10T07:26:02.336Z,13.70
2023-10-10T07:28:29.757Z,14.25
2023-10-10T07:30:57.088Z,13.18
2023-10-10T07:33:25.488Z,13.70
2023-10-10T07:35:56.778Z,13.90
2023-10-10T07:38:30.384Z,12.60
2023-10-10T07:40:57.607Z,12.20
2023-10-10T07:43:28.428Z,11.88
2023-10-10T07:45:59.686Z,12.48
2023-10-10T07:48:29.887Z,11.00
2023-10-10T07:51:07.212Z,13.05
2023-10-10T07:53:44.443Z,12.10
2023-10-10T07:56:12.113Z,12.82
2023-10-10T07:58:53.258Z,12.38
2023-10-10T08:01:22.039Z,11.00
2023-10-10T08:03:49.598Z,11.43
2023-10-10T08:06:23.019Z,11.52
2023-10-10T08:09:11.075Z,10.35
2023-10-10T08:11:39.356Z,12.23
2023-10-10T08:14:10.149Z,10.73
2023-10-10T08:16:44.277Z,11.23
2023-10-10T08:19:16.402Z,10.55
2023-10-10T08:21:52.973Z,10.18
2023-10-10T08:24:21.519Z,10.35
2023-10-10T08:26:52.589Z,10.27
2023-10-10T08:29:24.154Z,10.07
2023-10-10T08:31:53.093Z,9.23
2023-10-10T08:34:20.486Z,9.48
2023-10-10T08:36:49.972Z,9.88
2023-10-10T08:39:17.284Z,9.95
2023-10-10T08:41:46.157Z,10.85
2023-10-10T08:44:19.958Z,11.07
2023-10-10T08:46:48.473Z,10.73
2023-10-10T08:49:16.837Z,11.13
2023-10-10T08:51:46.185Z,10.98
2023-10-10T08:54:17.444Z,11.38
2023-10-10T08:57:04.043Z,12.40
2023-10-10T08:59:34.502Z,11.13
2023-10-10T09:02:07.852Z,11.45
2023-10-10T09:04:36.007Z,11.98
2023-10-10T09:07:09.823Z,12.05
2023-10-10T09:09:55.470Z,11.10
2023-10-10T09:12:22.885Z,12.98
2023-10-10T09:14:53.265Z,12.10
2023-10-10T09:17:34.607Z,11.40
2023-10-10T09:20:24.275Z,13.05
2023-10-10T09:23:05.903Z,11.35
2023-10-10T09:25:43.000Z,10.90
2023-10-10T09:28:16.542Z,11.20
2023-10-10T09:30:51.773Z,11.23
2023-10-10T09:33:31.191Z,10.98
2023-10-10T09:36:10.235Z,11.57
2023-10-10T09:38:46.679Z,11.02
2023-10-10T09:41:27.945Z,9.90
2023-10-10T09:44:22.786Z,9.05
2023-10-10T09:47:04.961Z,8.73
2023-10-10T09:49:53.366Z,8.65
2023-10-10T09:52:44.283Z,8.35
2023-10-10T09:55:14.471Z,8.38
2023-10-10T09:58:17.261Z,7.53
2023-10-10T10:00:44.972Z,8.23
2023-10-10T10:03:46.147Z,7.38
2023-10-10T10:07:07.518Z,8.27
2023-10-10T10:10:13.931Z,7.72
2023-10-10T10:13:38.411Z,7.03
2023-10-10T10:16:26.809Z,7.03
2023-10-10T10:19:12.985Z,7.20
2023-10-10T10:22:09.469Z,7.43
2023-10-10T10:24:46.441Z,7.18
2023-10-10T10:27:36.232Z,6.80
2023-10-10T10:30:20.928Z,6.68
2023-10-10T10:32:56.285Z,6.88
2023-10-10T10:35:50.008Z,5.90
2023-10-10T10:38:24.241Z,6.55
2023-10-10T10:41:06.036Z,6.45
2023-10-10T10:43:40.105Z,6.57
2023-10-10T10:46:15.904Z,5.75
2023-10-10T10:48:49.515Z,6.63
2023-10-10T10:51:29.197Z,6.03
2023-10-10T10:54:00.743Z,6.80
2023-10-10T10:56:36.283Z,6.38
2023-10-10T10:59:20.967Z,6.45
2023-10-10T11:01:53.747Z,6.13
2023-10-10T11:04:46.720Z,6.22
2023-10-10T11:07:27.354Z,6.65
2023-10-10T11:10:11.249Z,6.43
2023-10-10T11:12:38.574Z,6.15
2023-10-10T11:15:09.480Z,5.50
2023-10-10T11:17:41.342Z,5.60
2023-10-10T11:20:30.620Z,5.68
2023-10-10T11:23:13.253Z,5.70
2023-10-10T11:26:00.047Z,5.75
2023-10-10T11:28:38.848Z,5.60
2023-10-10T11:31:08.626Z,6.10
2023-10-10T11:33:50.205Z,5.05
2023-10-10T11:36:31.269Z,5.60
2023-10-10T11:39:18.141Z,6.13
2023-10-10T11:41:46.685Z,5.38
2023-10-10T11:44:20.361Z,5.70
2023-10-10T11:46:48.423Z,6.65
2023-10-10T11:49:18.814Z,5.68
2023-10-10T11:51:47.987Z,5.85
2023-10-10T11:54:15.494Z,5.80
2023-10-10T11:56:47.513Z,5.00
2023-10-10T11:59:15.636Z,5.40
2023-10-10T12:02:07.177Z,5.55
2023-10-10T12:04:37.905Z,5.20
2023-10-10T12:07:07.384Z,5.35
2023-10-10T12:09:35.529Z,5.13
2023-10-10T12:12:04.738Z,5.07
2023-10-10T12:14:33.313Z,5.55
2023-10-10T12:17:06.510Z,5.40
2023-10-10T12:19:38.380Z,4.90
2023-10-10T12:22:12.230Z,5.20
2023-10-10T12:24:42.940Z,4.65
2023-10-10T12:27:10.958Z,4.72
2023-10-10T12:29:41.759Z,4.45
2023-10-10T12:32:30.674Z,5.30
2023-10-10T12:35:00.959Z,4.63
2023-10-10T12:37:28.241Z,4.57
2023-10-10T12:39:55.621Z,5.30
2023-10-10T12:42:22.853Z,4.15
2023-10-10T12:44:50.298Z,4.05
2023-10-10T12:47:19.149Z,4.38
2023-10-10T12:49:46.941Z,4.47
2023-10-10T12:52:14.422Z,4.90
2023-10-10T12:54:43.360Z,4.82
2023-10-10T12:57:15.541Z,4.85
2023-10-10T12:59:49.607Z,4.93
2023-10-10T13:02:17.298Z,4.80
2023-10-10T13:04:49.595Z,4.68
2023-10-10T13:07:19.603Z,4.32
2023-10-10T13:09:48.126Z,4.18
2023-10-10T13:12:28.474Z,4.55
2023-10-10T13:15:15.574Z,3.95
2023-10-10T13:17:54.466Z,4.25
2023-10-10T13:20:25.219Z,4.32
2023-10-10T13:22:52.634Z,4.35
2023-10-10T13:25:21.660Z,3.92
2023-10-10T13:27:53.527Z,4.45
2023-10-10T13:30:24.908Z,4.00
2023-10-10T13:32:52.428Z,3.92
2023-10-10T13:35:21.495Z,4.10
2023-10-10T13:37:48.957Z,4.15
2023-10-10T13:40:22.663Z,4.20
2023-10-10T13:42:50.533Z,3.72
2023-10-10T13:45:23.132Z,4.10
2023-10-10T13:47:54.422Z,3.85
2023-10-10T13:50:45.772Z,3.80
2023-10-10T13:53:15.333Z,3.97
2023-10-10T13:55:47.227Z,4.05
2023-10-10T13:58:17.258Z,4.20
2023-10-10T14:00:57.249Z,3.35
2023-10-10T14:03:31.082Z,4.20
2023-10-10T14:06:02.091Z,3.63
2023-10-10T14:08:31.787Z,3.80
2023-10-10T14:11:01.550Z,4.10
2023-10-10T14:13:29.998Z,4.30
2023-10-10T14:15:58.573Z,3.97
2023-10-10T14:18:28.085Z,3.78
2023-10-10T14:20:55.968Z,4.03
2023-10-10T14:23:26.567Z,4.43
2023-10-10T14:26:04.320Z,3.35
2023-10-10T14:28:33.389Z,4.03
2023-10-10T14:31:00.782Z,4.15
2023-10-10T14:33:28.456Z,3.75
2023-10-10T14:35:56.040Z,3.42
2023-10-10T14:38:23.407Z,3.45
2023-10-10T14:40:50.551Z,3.67
2023-10-10T14:43:17.685Z,3.88
2023-10-10T14:45:50.002Z,3.58
2023-10-10T14:48:20.478Z,4.38
2023-10-10T14:50:53.856Z,4.00
2023-10-10T14:53:25.772Z,3.60
2023-10-10T14:55:53.223Z,3.75
2023-10-10T14:58:23.733Z,3.75
2023-10-10T15:00:53.886Z,3.92
2023-10-10T15:03:21.259Z,3.85
2023-10-10T15:05:53.207Z,4.38
2023-10-10T15:08:24.346Z,3.55
2023-10-10T15:10:52.821Z,3.88
2023-10-10T15:13:20.388Z,4.13
2023-10-10T15:15:49.362Z,4.00
2023-10-10T15:18:17.861Z,3.35
2023-10-10T15:20:52.006Z,3.60
2023-10-10T15:23:20.233Z,3.90
2023-10-10T15:25:56.849Z,4.05
2023-10-10T15:28:25.144Z,3.65
2023-10-10T15:30:52.345Z,3.58
2023-10-10T15:33:20.049Z,3.70
2023-10-10T15:35:51.380Z,3.58
2023-10-10T15:38:19.906Z,4.13
2023-10-10T15:40:47.809Z,3.83
2023-10-10T15:43:26.559Z,3.70
2023-10-10T15:46:00.528Z,4.20
2023-10-10T15:48:29.162Z,4.35
2023-10-10T15:50:58.726Z,3.67
2023-10-10T15:53:27.256Z,4.28
2023-10-10T15:56:13.255Z,4.20
2023-10-10T15:58:44.753Z,4.20
2023-10-10T16:01:16.454Z,4.45
2023-10-10T16:03:48.733Z,4.32
2023-10-10T16:06:19.718Z,4.00
2023-10-10T16:08:54.807Z,3.85
2023-10-10T16:11:29.130Z,4.07
2023-10-10T16:13:56.497Z,4.15
2023-10-10T16:16:23.572Z,4.28
2023-10-10T16:18:50.688Z,4.35
2023-10-10T16:21:18.406Z,3.60
2023-10-10T16:23:46.106Z,3.85
2023-10-10T16:26:18.116Z,3.90
2023-10-10T16:28:45.804Z,4.05
2023-10-10T16:31:18.255Z,4.60
2023-10-10T16:33:45.693Z,3.95
2023-10-10T16:36:18.625Z,4.13
2023-10-10T16:38:50.960Z,4.55
2023-10-10T16:41:20.058Z,4.43
2023-10-10T16:44:00.728Z,3.88
2023-10-10T16:46:32.379Z,4.45
2023-10-10T16:49:00.796Z,4.50
2023-10-10T16:51:28.351Z,4.43
2023-10-10T16:53:56.739Z,4.00
2023-10-10T16:56:24.428Z,4.25
2023-10-10T16:58:52.132Z,4.35
2023-10-10T17:01:24.167Z,4.28
2023-10-10T17:03:56.065Z,4.47
2023-10-10T17:06:24.399Z,4.50
2023-10-10T17:08:55.997Z,4.22
2023-10-10T17:11:24.422Z,4.00
2023-10-10T17:13:54.758Z,4.68
2023-10-10T17:16:29.973Z,4.72
2023-10-10T17:19:14.454Z,4.32
2023-10-10T17:21:43.915Z,4.00
2023-10-10T17:24:11.500Z,4.15
2023-10-10T17:26:39.073Z,4.53
2023-10-10T17:29:06.412Z,4.20
2023-10-10T17:31:33.778Z,5.47
2023-10-10T17:34:02.782Z,4.80
2023-10-10T17:36:29.982Z,4.65
2023-10-10T17:38:57.282Z,4.20
2023-10-10T17:41:25.183Z,5.50
2023-10-10T17:43:53.635Z,4.85
2023-10-10T17:46:22.770Z,4.65
2023-10-10T17:48:57.674Z,4.63
2023-10-10T17:51:25.458Z,4.97
2023-10-10T17:53:53.248Z,4.47
2023-10-10T17:56:24.419Z,4.82
2023-10-10T17:58:52.095Z,4.43
2023-10-10T18:01:22.854Z,4.50
2023-10-10T18:03:54.981Z,4.47
2023-10-10T18:06:25.222Z,4.38
2023-10-10T18:08:55.845Z,4.40
2023-10-10T18:11:27.637Z,4.43
2023-10-10T18:13:54.948Z,4.22
2023-10-10T18:16:25.189Z,3.92
2023-10-10T18:18:53.863Z,4.30
2023-10-10T18:21:22.020Z,3.90
2023-10-10T18:23:49.152Z,4.00
2023-10-10T18:26:23.663Z,3.30
2023-10-10T18:28:53.424Z,3.13
2023-10-10T18:31:30.913Z,3.40
2023-10-10T18:33:58.621Z,3.70
2023-10-10T18:36:25.909Z,3.58
2023-10-10T18:39:00.488Z,3.20
2023-10-10T18:41:27.823Z,3.50
2023-10-10T18:43:55.132Z,3.10
2023-10-10T18:46:25.472Z,3.47
2023-10-10T18:48:52.983Z,3.47
2023-10-10T18:51:20.356Z,3.40
2023-10-10T18:53:49.106Z,4.18
2023-10-10T18:56:16.445Z,3.05
2023-10-10T18:58:43.632Z,3.40
2023-10-10T19:01:15.493Z,3.28
2023-10-10T19:03:49.032Z,2.80
2023-10-10T19:06:19.948Z,3.42
2023-10-10T19:08:47.991Z,3.22
2023-10-10T19:11:17.747Z,3.42
2023-10-10T19:13:50.189Z,3.88
2023-10-10T19:16:18.952Z,3.33
2023-10-10T19:18:47.329Z,3.25
2023-10-10T19:21:19.295Z,3.47
2023-10-10T19:23:49.453Z,3.83
2023-10-10T19:26:17.328Z,3.42
2023-10-10T19:28:45.141Z,3.35
2023-10-10T19:31:15.668Z,3.88
2023-10-10T19:33:43.281Z,3.47
2023-10-10T19:36:10.488Z,3.20
2023-10-10T19:38:41.633Z,3.83
2023-10-10T19:41:11.097Z,3.22
2023-10-10T19:43:38.845Z,3.33
2023-10-10T19:46:11.775Z,3.33
2023-10-10T19:48:43.479Z,3.22
2023-10-10T19:51:19.264Z,3.28
2023-10-10T19:53:51.669Z,3.28
2023-10-10T19:56:19.062Z,3.70
2023-10-10T19:58:49.931Z,3.30
2023-10-10T20:01:17.723Z,3.17
2023-10-10T20:03:47.051Z,3.60
2023-10-10T20:06:21.331Z,3.90
2023-10-10T20:08:50.571Z,4.35
2023-10-10T20:11:17.805Z,3.72
2023-10-10T20:13:46.974Z,4.00
2023-10-10T20:16:16.037Z,3.75
2023-10-10T20:18:48.505Z,3.95
2023-10-10T20:21:17.398Z,3.67
2023-10-10T20:23:45.355Z,4.10
2023-10-10T20:26:19.416Z,3.42
2023-10-10T20:28:48.990Z,3.80
2023-10-10T20:31:18.990Z,4.40
2023-10-10T20:33:49.500Z,3.95
2023-10-10T20:36:17.808Z,3.70
2023-10-10T20:38:45.795Z,4.55
2023-10-10T20:41:15.555Z,4.30
2023-10-10T20:43:43.856Z,3.67
2023-10-10T20:46:19.287Z,4.63
2023-10-10T20:48:47.633Z,3.78
2023-10-10T20:51:14.960Z,4.13
2023-10-10T20:53:43.397Z,4.90
2023-10-10T20:56:11.204Z,4.53
2023-10-10T20:58:39.498Z,4.82
2023-10-10T21:01:12.065Z,4.22
2023-10-10T21:03:39.526Z,4.43
2023-10-10T21:06:07.112Z,4.60
2023-10-10T21:08:37.316Z,4.40
2023-10-10T21:11:12.145Z,4.15
2023-10-10T21:13:39.322Z,4.38
2023-10-10T21:16:17.398Z,4.18
2023-10-10T21:18:46.946Z,4.82
2023-10-10T21:21:15.466Z,4.35
2023-10-10T21:23:43.771Z,4.82
2023-10-10T21:26:15.895Z,4.68
2023-10-10T21:28:43.436Z,4.80
2023-10-10T21:31:12.074Z,4.60
2023-10-10T21:33:46.847Z,4.63
2023-10-10T21:36:14.638Z,4.70
2023-10-10T21:38:41.943Z,5.10
2023-10-10T21:41:10.927Z,4.60
2023-10-10T21:43:38.776Z,4.10
2023-10-10T21:46:07.027Z,5.28
2023-10-10T21:48:34.509Z,5.25
2023-10-10T21:51:07.971Z,4.95
2023-10-10T21:53:37.481Z,4.57
2023-10-10T21:56:06.505Z,4.88
2023-10-10T21:58:34.113Z,5.03
2023-10-10T22:01:03.689Z,5.10
2023-10-10T22:03:30.842Z,5.03
2023-10-10T22:05:58.186Z,4.88
2023-10-10T22:08:28.596Z,5.10
2023-10-10T22:10:58.643Z,4.38
2023-10-10T22:13:27.136Z,4.70
2023-10-10T22:15:54.248Z,5.18
2023-10-10T22:18:21.920Z,6.20
2023-10-10T22:20:49.000Z,5.30
2023-10-10T22:23:16.658Z,5.15
2023-10-10T22:25:43.674Z,4.90
2023-10-10T22:28:11.083Z,4.80
2023-10-10T22:30:38.585Z,4.57
2023-10-10T22:33:12.196Z,5.70
2023-10-10T22:35:40.798Z,4.50
2023-10-10T22:38:08.046Z,4.80
2023-10-10T22:40:35.543Z,3.67
2023-10-10T22:43:05.345Z,4.85
2023-10-10T22:45:35.295Z,4.38
2023-10-10T22:48:05.312Z,4.80
2023-10-10T22:50:33.414Z,4.72
2023-10-10T22:53:04.327Z,4.78
2023-10-10T22:55:36.068Z,4.93
2023-10-10T22:58:08.932Z,4.18
2023-10-10T23:00:37.805Z,4.40
2023-10-10T23:03:11.237Z,4.68
2023-10-10T23:05:44.120Z,4.13
2023-10-10T23:08:12.851Z,4.97
2023-10-10T23:10:41.105Z,4.32
2023-10-10T23:13:08.607Z,5.18
2023-10-10T23:15:38.993Z,5.03
2023-10-10T23:18:11.765Z,5.05
2023-10-10T23:20:42.421Z,4.78
2023-10-10T23:23:13.796Z,4.88
2023-10-10T23:25:41.143Z,4.25
2023-10-10T23:28:09.776Z,4.40
2023-10-10T23:30:40.885Z,4.53
2023-10-10T23:33:13.180Z,4.47
2023-10-10T23:35:42.545Z,4.50
2023-10-10T23:38:10.630Z,4.45
2023-10-10T23:40:42.956Z,4.45
2023-10-10T23:43:20.342Z,4.57
2023-10-10T23:45:58.168Z,4.40
2023-10-10T23:48:32.622Z,4.55
2023-10-10T23:51:01.062Z,4.35
2023-10-10T23:53:28.509Z,4.20
2023-10-10T23:56:00.838Z,4.82
2023-10-10T23:58:30.540Z,4.50
